sensor_id;sensor_type;location;lat;lon;timestamp;P1;P2;P0
66336;PMS1003;53139;45.576;5.304;2023-03-31T00:02:17;5.00;5.00;4.80
66336;PMS1003;53139;45.576;5.304;2023-03-31T00:05:23;8.40;7.00;6.00
66336;PMS1003;53139;45.576;5.304;2023-03-31T00:08:27;8.80;8.80;6.80
66336;PMS1003;53139;45.576;5.304;2023-03-31T00:11:36;9.00;7.00;5.00
66336;PMS1003;53139;45.576;5.304;2023-03-31T00:14:39;9.40;7.60;6.20
66336;PMS1003;53139;45.576;5.304;2023-03-31T00:17:42;7.60;6.40;5.00
66336;PMS1003;53139;45.576;5.304;2023-03-31T00:20:44;8.80;7.40;5.00
66336;PMS1003;53139;45.576;5.304;2023-03-31T00:23:47;10.00;7.00;5.80
66336;PMS1003;53139;45.576;5.304;2023-03-31T00:26:49;11.20;8.60;6.60
66336;PMS1003;53139;45.576;5.304;2023-03-31T00:29:50;13.00;9.00;6.00
66336;PMS1003;53139;45.576;5.304;2023-03-31T00:32:52;11.67;7.67;6.00
66336;PMS1003;53139;45.576;5.304;2023-03-31T00:35:53;10.33;9.33;7.00
66336;PMS1003;53139;45.576;5.304;2023-03-31T00:38:58;9.60;8.20;6.00
66336;PMS1003;53139;45.576;5.304;2023-03-31T00:42:02;12.00;6.67;4.00
66336;PMS1003;53139;45.576;5.304;2023-03-31T00:48:15;11.00;8.33;6.00
66336;PMS1003;53139;45.576;5.304;2023-03-31T00:51:20;7.20;4.60;3.40
66336;PMS1003;53139;45.576;5.304;2023-03-31T00:54:24;4.60;4.00;2.20
66336;PMS1003;53139;45.576;5.304;2023-03-31T00:57:28;10.80;9.40;7.40
66336;PMS1003;53139;45.576;5.304;2023-03-31T01:00:34;8.00;8.00;5.60
66336;PMS1003;53139;45.576;5.304;2023-03-31T01:03:37;9.40;8.80;6.40
66336;PMS1003;53139;45.576;5.304;2023-03-31T01:06:39;9.50;9.00;6.00
66336;PMS1003;53139;45.576;5.304;2023-03-31T01:09:46;11.00;10.33;8.00
66336;PMS1003;53139;45.576;5.304;2023-03-31T01:12:50;9.00;8.80;6.00
66336;PMS1003;53139;45.576;5.304;2023-03-31T01:15:53;11.67;9.67;7.00
66336;PMS1003;53139;45.576;5.304;2023-03-31T01:18:55;6.25;6.25;5.00
66336;PMS1003;53139;45.576;5.304;2023-03-31T01:25:17;7.80;5.20;3.60
66336;PMS1003;53139;45.576;5.304;2023-03-31T01:36:27;12.00;9.33;7.33
66336;PMS1003;53139;45.576;5.304;2023-03-31T01:57:19;11.00;10.33;8.00
66336;PMS1003;53139;45.576;5.304;2023-03-31T02:00:28;11.00;11.00;8.00
66336;PMS1003;53139;45.576;5.304;2023-03-31T02:03:39;9.60;8.80;6.00
66336;PMS1003;53139;45.576;5.304;2023-03-31T02:06:53;6.60;6.60;5.00
66336;PMS1003;53139;45.576;5.304;2023-03-31T02:09:59;11.33;9.00;6.00
66336;PMS1003;53139;45.576;5.304;2023-03-31T02:13:04;9.33;9.33;6.67
66336;PMS1003;53139;45.576;5.304;2023-03-31T02:16:10;6.80;5.00;4.60
66336;PMS1003;53139;45.576;5.304;2023-03-31T02:19:18;11.00;9.33;8.00
66336;PMS1003;53139;45.576;5.304;2023-03-31T02:22:23;10.00;10.00;8.00
66336;PMS1003;53139;45.576;5.304;2023-03-31T02:25:28;11.33;9.00;7.00
66336;PMS1003;53139;45.576;5.304;2023-03-31T02:28:35;7.00;7.00;5.00
66336;PMS1003;53139;45.576;5.304;2023-03-31T02:35:11;11.67;9.00;6.00
66336;PMS1003;53139;45.576;5.304;2023-03-31T02:38:15;12.00;10.33;7.00
66336;PMS1003;53139;45.576;5.304;2023-03-31T02:41:17;10.50;8.00;6.75
66336;PMS1003;53139;45.576;5.304;2023-03-31T02:44:17;12.00;9.00;7.00
66336;PMS1003;53139;45.576;5.304;2023-03-31T02:47:21;10.20;9.00;7.00
66336;PMS1003;53139;45.576;5.304;2023-03-31T02:50:22;12.00;12.00;8.00
66336;PMS1003;53139;45.576;5.304;2023-03-31T02:57:12;8.00;7.20;5.00
66336;PMS1003;53139;45.576;5.304;2023-03-31T03:03:33;6.00;6.00;5.00
66336;PMS1003;53139;45.576;5.304;2023-03-31T03:06:54;8.60;8.20;5.20
66336;PMS1003;53139;45.576;5.304;2023-03-31T03:10:28;9.80;9.00;6.00
66336;PMS1003;53139;45.576;5.304;2023-03-31T03:17:26;9.20;8.40;6.80
66336;PMS1003;53139;45.576;5.304;2023-03-31T03:20:36;5.40;5.00;4.00
66336;PMS1003;53139;45.576;5.304;2023-03-31T03:23:40;11.00;8.60;7.00
66336;PMS1003;53139;45.576;5.304;2023-03-31T03:26:45;5.60;5.60;4.20
66336;PMS1003;53139;45.576;5.304;2023-03-31T03:29:49;6.20;6.00;3.80
66336;PMS1003;53139;45.576;5.304;2023-03-31T03:32:52;5.40;3.60;3.00
66336;PMS1003;53139;45.576;5.304;2023-03-31T03:35:55;5.20;4.00;4.00
66336;PMS1003;53139;45.576;5.304;2023-03-31T03:38:58;8.40;6.00;4.60
66336;PMS1003;53139;45.576;5.304;2023-03-31T03:42:00;8.80;6.40;4.80
66336;PMS1003;53139;45.576;5.304;2023-03-31T03:45:03;6.00;6.00;4.00
66336;PMS1003;53139;45.576;5.304;2023-03-31T03:48:06;5.20;4.80;4.00
66336;PMS1003;53139;45.576;5.304;2023-03-31T03:51:09;6.80;5.00;3.80
66336;PMS1003;53139;45.576;5.304;2023-03-31T03:54:11;5.80;5.00;4.00
66336;PMS1003;53139;45.576;5.304;2023-03-31T03:57:14;5.60;4.80;4.00
66336;PMS1003;53139;45.576;5.304;2023-03-31T04:00:17;5.00;4.20;3.00
66336;PMS1003;53139;45.576;5.304;2023-03-31T04:03:20;3.60;3.00;2.80
66336;PMS1003;53139;45.576;5.304;2023-03-31T04:06:22;3.00;3.00;2.00
66336;PMS1003;53139;45.576;5.304;2023-03-31T04:09:25;5.20;4.00;3.00
66336;PMS1003;53139;45.576;5.304;2023-03-31T04:12:28;6.20;5.00;4.00
66336;PMS1003;53139;45.576;5.304;2023-03-31T04:15:30;2.20;2.20;2.00
66336;PMS1003;53139;45.576;5.304;2023-03-31T04:18:33;7.00;6.00;4.00
66336;PMS1003;53139;45.576;5.304;2023-03-31T04:21:38;5.00;5.00;3.00
66336;PMS1003;53139;45.576;5.304;2023-03-31T04:24:46;5.40;4.00;3.00
66336;PMS1003;53139;45.576;5.304;2023-03-31T04:27:53;2.20;1.00;1.00
66336;PMS1003;53139;45.576;5.304;2023-03-31T04:30:56;4.40;3.60;3.20
66336;PMS1003;53139;45.576;5.304;2023-03-31T04:33:59;3.60;3.60;3.00
66336;PMS1003;53139;45.576;5.304;2023-03-31T04:37:03;6.40;4.20;4.00
66336;PMS1003;53139;45.576;5.304;2023-03-31T04:40:06;2.40;2.40;1.60
66336;PMS1003;53139;45.576;5.304;2023-03-31T04:43:09;4.00;3.20;2.80
66336;PMS1003;53139;45.576;5.304;2023-03-31T04:46:12;4.20;3.40;2.80
66336;PMS1003;53139;45.576;5.304;2023-03-31T04:49:15;3.20;3.00;2.80
66336;PMS1003;53139;45.576;5.304;2023-03-31T04:52:17;0.00;0.00;0.00
66336;PMS1003;53139;45.576;5.304;2023-03-31T04:55:20;4.80;3.40;3.00
66336;PMS1003;53139;45.576;5.304;2023-03-31T04:58:22;4.20;4.20;3.60
66336;PMS1003;53139;45.576;5.304;2023-03-31T05:01:25;3.00;3.00;3.00
66336;PMS1003;53139;45.576;5.304;2023-03-31T05:04:28;4.80;3.00;2.80
66336;PMS1003;53139;45.576;5.304;2023-03-31T05:07:30;3.80;3.20;3.00
66336;PMS1003;53139;45.576;5.304;2023-03-31T05:10:33;1.20;1.00;1.00
66336;PMS1003;53139;45.576;5.304;2023-03-31T05:13:36;4.60;3.80;2.20
66336;PMS1003;53139;45.576;5.304;2023-03-31T05:16:42;4.60;3.80;3.00
66336;PMS1003;53139;45.576;5.304;2023-03-31T05:19:45;3.00;2.00;2.00
66336;PMS1003;53139;45.576;5.304;2023-03-31T05:22:51;3.40;3.40;2.20
66336;PMS1003;53139;45.576;5.304;2023-03-31T05:25:54;4.40;4.20;3.40
66336;PMS1003;53139;45.576;5.304;2023-03-31T05:28:57;4.80;3.00;2.60
66336;PMS1003;53139;45.576;5.304;2023-03-31T05:31:59;5.40;4.00;3.00
66336;PMS1003;53139;45.576;5.304;2023-03-31T05:35:02;2.00;2.00;1.20
66336;PMS1003;53139;45.576;5.304;2023-03-31T05:38:05;2.60;1.00;0.00
66336;PMS1003;53139;45.576;5.304;2023-03-31T05:41:10;3.00;3.00;2.00
66336;PMS1003;53139;45.576;5.304;2023-03-31T05:44:13;8.00;5.00;4.00
66336;PMS1003;53139;45.576;5.304;2023-03-31T05:47:15;1.60;0.20;0.00
66336;PMS1003;53139;45.576;5.304;2023-03-31T05:50:18;3.60;3.00;2.20
66336;PMS1003;53139;45.576;5.304;2023-03-31T05:53:20;3.80;3.00;2.60
66336;PMS1003;53139;45.576;5.304;2023-03-31T05:56:23;3.80;3.00;2.00
66336;PMS1003;53139;45.576;5.304;2023-03-31T05:59:25;3.60;2.20;2.00
66336;PMS1003;53139;45.576;5.304;2023-03-31T06:02:28;4.00;3.20;2.40
66336;PMS1003;53139;45.576;5.304;2023-03-31T06:05:30;2.00;2.00;2.00
66336;PMS1003;53139;45.576;5.304;2023-03-31T06:08:33;3.00;2.40;2.00
66336;PMS1003;53139;45.576;5.304;2023-03-31T06:11:37;3.00;3.00;2.00
66336;PMS1003;53139;45.576;5.304;2023-03-31T06:14:40;3.80;2.20;1.60
66336;PMS1003;53139;45.576;5.304;2023-03-31T06:17:42;3.60;2.80;2.60
66336;PMS1003;53139;45.576;5.304;2023-03-31T06:20:45;3.80;3.20;2.20
66336;PMS1003;53139;45.576;5.304;2023-03-31T06:23:47;5.20;3.60;2.00
66336;PMS1003;53139;45.576;5.304;2023-03-31T06:26:50;4.40;4.00;3.00
66336;PMS1003;53139;45.576;5.304;2023-03-31T06:29:52;5.00;4.40;3.00
66336;PMS1003;53139;45.576;5.304;2023-03-31T06:32:55;7.40;6.20;5.60
66336;PMS1003;53139;45.576;5.304;2023-03-31T06:35:58;4.80;3.00;2.80
66336;PMS1003;53139;45.576;5.304;2023-03-31T06:39:02;5.40;3.60;3.00
66336;PMS1003;53139;45.576;5.304;2023-03-31T06:42:05;5.20;4.00;3.00
66336;PMS1003;53139;45.576;5.304;2023-03-31T06:45:08;7.20;5.40;4.00
66336;PMS1003;53139;45.576;5.304;2023-03-31T06:48:11;5.60;4.40;3.20
66336;PMS1003;53139;45.576;5.304;2023-03-31T06:51:13;1.00;1.00;1.00
66336;PMS1003;53139;45.576;5.304;2023-03-31T06:54:16;6.20;4.00;2.80
66336;PMS1003;53139;45.576;5.304;2023-03-31T06:57:19;5.40;4.80;3.00
66336;PMS1003;53139;45.576;5.304;2023-03-31T07:00:22;5.00;4.80;4.00
66336;PMS1003;53139;45.576;5.304;2023-03-31T07:03:27;6.80;4.00;3.60
66336;PMS1003;53139;45.576;5.304;2023-03-31T07:06:30;6.40;6.00;5.20
66336;PMS1003;53139;45.576;5.304;2023-03-31T07:09:33;8.20;7.00;5.40
66336;PMS1003;53139;45.576;5.304;2023-03-31T07:12:35;5.40;4.60;3.20
66336;PMS1003;53139;45.576;5.304;2023-03-31T07:15:38;6.40;4.40;4.00
66336;PMS1003;53139;45.576;5.304;2023-03-31T07:18:40;4.40;4.20;3.00
66336;PMS1003;53139;45.576;5.304;2023-03-31T07:21:43;5.40;3.40;3.40
66336;PMS1003;53139;45.576;5.304;2023-03-31T07:24:45;5.00;4.60;3.40
66336;PMS1003;53139;45.576;5.304;2023-03-31T07:27:48;4.80;4.60;3.40
66336;PMS1003;53139;45.576;5.304;2023-03-31T07:30:50;5.60;4.20;3.00
66336;PMS1003;53139;45.576;5.304;2023-03-31T07:33:53;7.00;5.60;4.80
66336;PMS1003;53139;45.576;5.304;2023-03-31T07:36:55;5.60;2.40;1.20
66336;PMS1003;53139;45.576;5.304;2023-03-31T07:39:58;6.00;5.20;4.00
66336;PMS1003;53139;45.576;5.304;2023-03-31T07:43:00;3.20;2.80;2.00
66336;PMS1003;53139;45.576;5.304;2023-03-31T07:46:03;4.60;3.80;3.00
66336;PMS1003;53139;45.576;5.304;2023-03-31T07:49:06;5.20;5.00;3.00
66336;PMS1003;53139;45.576;5.304;2023-03-31T07:52:10;6.20;4.00;3.40
66336;PMS1003;53139;45.576;5.304;2023-03-31T07:55:13;5.00;4.00;3.00
66336;PMS1003;53139;45.576;5.304;2023-03-31T07:58:16;8.40;6.80;5.20
66336;PMS1003;53139;45.576;5.304;2023-03-31T08:01:19;6.00;6.00;4.40
66336;PMS1003;53139;45.576;5.304;2023-03-31T08:04:22;7.40;7.00;6.20
66336;PMS1003;53139;45.576;5.304;2023-03-31T08:07:25;7.60;6.60;5.40
66336;PMS1003;53139;45.576;5.304;2023-03-31T08:10:28;8.40;7.00;3.80
66336;PMS1003;53139;45.576;5.304;2023-03-31T08:13:31;8.80;7.60;6.60
66336;PMS1003;53139;45.576;5.304;2023-03-31T08:16:31;11.00;7.67;6.00
66336;PMS1003;53139;45.576;5.304;2023-03-31T08:19:33;5.00;5.00;3.00
66336;PMS1003;53139;45.576;5.304;2023-03-31T08:22:36;8.00;8.00;5.40
66336;PMS1003;53139;45.576;5.304;2023-03-31T08:25:37;11.00;9.67;7.00
66336;PMS1003;53139;45.576;5.304;2023-03-31T08:28:38;9.00;8.67;6.00
66336;PMS1003;53139;45.576;5.304;2023-03-31T08:31:39;8.33;7.33;6.00
66336;PMS1003;53139;45.576;5.304;2023-03-31T08:34:41;11.50;9.75;7.00
66336;PMS1003;53139;45.576;5.304;2023-03-31T08:37:41;12.67;8.33;5.33
66336;PMS1003;53139;45.576;5.304;2023-03-31T08:40:42;8.00;6.00;5.00
66336;PMS1003;53139;45.576;5.304;2023-03-31T08:43:44;15.75;9.75;7.75
66336;PMS1003;53139;45.576;5.304;2023-03-31T08:46:47;9.00;7.00;5.00
66336;PMS1003;53139;45.576;5.304;2023-03-31T08:49:53;11.67;8.67;6.33
66336;PMS1003;53139;45.576;5.304;2023-03-31T08:56:05;4.60;2.20;0.00
66336;PMS1003;53139;45.576;5.304;2023-03-31T08:59:32;7.33;7.00;5.00
66336;PMS1003;53139;45.576;5.304;2023-03-31T09:02:43;7.20;6.00;5.00
66336;PMS1003;53139;45.576;5.304;2023-03-31T09:05:59;7.20;5.80;5.00
66336;PMS1003;53139;45.576;5.304;2023-03-31T09:09:06;7.00;6.00;4.40
66336;PMS1003;53139;45.576;5.304;2023-03-31T09:12:20;8.20;6.60;5.00
66336;PMS1003;53139;45.576;5.304;2023-03-31T09:15:29;8.33;6.00;4.00
66336;PMS1003;53139;45.576;5.304;2023-03-31T09:18:37;5.60;3.20;2.20
66336;PMS1003;53139;45.576;5.304;2023-03-31T09:21:42;7.67;6.33;5.00
66336;PMS1003;53139;45.576;5.304;2023-03-31T09:24:49;9.50;9.50;7.00
66336;PMS1003;53139;45.576;5.304;2023-03-31T09:27:55;7.00;6.33;5.00
66336;PMS1003;53139;45.576;5.304;2023-03-31T09:30:58;9.33;8.00;5.00
66336;PMS1003;53139;45.576;5.304;2023-03-31T09:34:04;12.33;8.33;5.00
66336;PMS1003;53139;45.576;5.304;2023-03-31T09:37:24;9.00;9.00;6.33
66336;PMS1003;53139;45.576;5.304;2023-03-31T09:40:27;14.00;10.00;6.00
66336;PMS1003;53139;45.576;5.304;2023-03-31T09:43:30;4.60;4.20;3.60
66336;PMS1003;53139;45.576;5.304;2023-03-31T09:46:36;8.00;7.20;5.60
66336;PMS1003;53139;45.576;5.304;2023-03-31T09:49:39;7.80;6.40;4.60
66336;PMS1003;53139;45.576;5.304;2023-03-31T09:52:46;9.00;8.67;6.00
66336;PMS1003;53139;45.576;5.304;2023-03-31T09:55:53;10.20;5.60;4.60
66336;PMS1003;53139;45.576;5.304;2023-03-31T09:59:00;11.50;9.50;6.50
66336;PMS1003;53139;45.576;5.304;2023-03-31T10:02:03;13.50;8.00;5.75
66336;PMS1003;53139;45.576;5.304;2023-03-31T10:05:36;12.00;9.00;6.00
66336;PMS1003;53139;45.576;5.304;2023-03-31T10:11:51;9.80;8.00;5.60
66336;PMS1003;53139;45.576;5.304;2023-03-31T10:15:17;14.00;10.33;7.67
66336;PMS1003;53139;45.576;5.304;2023-03-31T10:18:21;6.40;5.80;3.40
66336;PMS1003;53139;45.576;5.304;2023-03-31T10:21:35;9.20;8.40;5.20
66336;PMS1003;53139;45.576;5.304;2023-03-31T10:24:40;10.80;6.80;4.80
66336;PMS1003;53139;45.576;5.304;2023-03-31T10:27:46;9.00;9.00;4.60
66336;PMS1003;53139;45.576;5.304;2023-03-31T10:30:51;10.33;9.00;6.00
66336;PMS1003;53139;45.576;5.304;2023-03-31T10:33:55;9.67;9.33;7.33
66336;PMS1003;53139;45.576;5.304;2023-03-31T10:36:59;7.60;7.60;5.60
66336;PMS1003;53139;45.576;5.304;2023-03-31T10:40:08;11.67;9.67;6.67
66336;PMS1003;53139;45.576;5.304;2023-03-31T10:43:15;11.00;8.33;5.67
66336;PMS1003;53139;45.576;5.304;2023-03-31T10:46:19;10.00;9.00;7.00
66336;PMS1003;53139;45.576;5.304;2023-03-31T10:52:22;9.67;8.67;5.33
66336;PMS1003;53139;45.576;5.304;2023-03-31T10:55:29;10.80;8.80;7.40
66336;PMS1003;53139;45.576;5.304;2023-03-31T11:05:23;8.40;6.80;5.60
66336;PMS1003;53139;45.576;5.304;2023-03-31T11:08:51;12.00;10.67;7.00
66336;PMS1003;53139;45.576;5.304;2023-03-31T11:12:26;10.00;8.33;7.00
66336;PMS1003;53139;45.576;5.304;2023-03-31T11:15:39;8.80;8.00;6.20
66336;PMS1003;53139;45.576;5.304;2023-03-31T11:25:19;10.20;8.80;6.00
66336;PMS1003;53139;45.576;5.304;2023-03-31T11:28:40;10.00;9.60;7.00
66336;PMS1003;53139;45.576;5.304;2023-03-31T11:35:11;10.33;9.00;6.33
66336;PMS1003;53139;45.576;5.304;2023-03-31T11:38:46;9.00;8.80;7.20
66336;PMS1003;53139;45.576;5.304;2023-03-31T11:41:54;10.33;9.33;7.33
66336;PMS1003;53139;45.576;5.304;2023-03-31T11:45:11;9.00;7.40;5.00
66336;PMS1003;53139;45.576;5.304;2023-03-31T11:51:53;7.20;6.00;5.40
66336;PMS1003;53139;45.576;5.304;2023-03-31T11:55:04;10.00;9.00;5.80
66336;PMS1003;53139;45.576;5.304;2023-03-31T11:58:20;12.33;12.00;8.67
66336;PMS1003;53139;45.576;5.304;2023-03-31T12:01:27;12.67;8.67;5.00
66336;PMS1003;53139;45.576;5.304;2023-03-31T12:04:41;6.20;5.40;4.20
66336;PMS1003;53139;45.576;5.304;2023-03-31T12:11:01;10.67;8.67;6.33
66336;PMS1003;53139;45.576;5.304;2023-03-31T12:14:24;2.20;1.40;0.80
66336;PMS1003;53139;45.576;5.304;2023-03-31T12:17:27;9.00;8.33;6.00
66336;PMS1003;53139;45.576;5.304;2023-03-31T12:20:32;6.40;4.60;3.60
66336;PMS1003;53139;45.576;5.304;2023-03-31T12:23:40;7.80;6.00;4.60
66336;PMS1003;53139;45.576;5.304;2023-03-31T12:29:55;7.20;7.20;4.00
66336;PMS1003;53139;45.576;5.304;2023-03-31T12:33:45;7.00;6.00;5.00
66336;PMS1003;53139;45.576;5.304;2023-03-31T12:36:46;7.80;6.80;5.80
66336;PMS1003;53139;45.576;5.304;2023-03-31T12:40:02;9.40;9.40;6.80
66336;PMS1003;53139;45.576;5.304;2023-03-31T12:43:23;6.67;6.00;5.00
66336;PMS1003;53139;45.576;5.304;2023-03-31T12:55:57;7.20;6.80;5.00
66336;PMS1003;53139;45.576;5.304;2023-03-31T12:59:16;6.60;5.00;3.80
66336;PMS1003;53139;45.576;5.304;2023-03-31T13:02:21;5.20;4.40;3.80
66336;PMS1003;53139;45.576;5.304;2023-03-31T13:12:19;6.00;6.00;5.00
66336;PMS1003;53139;45.576;5.304;2023-03-31T13:15:24;5.20;4.40;3.40
66336;PMS1003;53139;45.576;5.304;2023-03-31T13:18:28;3.00;3.00;2.20
66336;PMS1003;53139;45.576;5.304;2023-03-31T13:21:50;7.00;7.00;5.00
66336;PMS1003;53139;45.576;5.304;2023-03-31T13:25:23;3.80;2.00;1.00
66336;PMS1003;53139;45.576;5.304;2023-03-31T13:28:39;2.00;0.40;0.40
66336;PMS1003;53139;45.576;5.304;2023-03-31T13:35:03;0.60;0.20;0.00
66336;PMS1003;53139;45.576;5.304;2023-03-31T13:39:17;0.00;0.00;0.00
66336;PMS1003;53139;45.576;5.304;2023-03-31T13:41:56;0.20;0.00;0.00
66336;PMS1003;53139;45.576;5.304;2023-03-31T13:45:18;0.80;0.00;0.00
66336;PMS1003;53139;45.576;5.304;2023-03-31T13:55:11;1.40;0.00;0.00
66336;PMS1003;53139;45.576;5.304;2023-03-31T14:09:32;0.60;0.00;0.00
66336;PMS1003;53139;45.576;5.304;2023-03-31T14:12:37;0.60;0.00;0.00
66336;PMS1003;53139;45.576;5.304;2023-03-31T14:15:41;1.20;0.60;0.00
66336;PMS1003;53139;45.576;5.304;2023-03-31T14:19:04;0.00;0.00;0.00
66336;PMS1003;53139;45.576;5.304;2023-03-31T14:22:33;0.00;0.00;0.00
66336;PMS1003;53139;45.576;5.304;2023-03-31T14:26:30;2.80;0.00;0.00
66336;PMS1003;53139;45.576;5.304;2023-03-31T14:29:51;1.00;0.00;0.00
66336;PMS1003;53139;45.576;5.304;2023-03-31T14:33:13;0.00;0.00;0.00
66336;PMS1003;53139;45.576;5.304;2023-03-31T14:39:52;0.00;0.00;0.00
66336;PMS1003;53139;45.576;5.304;2023-03-31T14:42:58;0.00;0.00;0.00
66336;PMS1003;53139;45.576;5.304;2023-03-31T14:46:04;0.00;0.00;0.00
66336;PMS1003;53139;45.576;5.304;2023-03-31T14:52:38;0.00;0.00;0.00
66336;PMS1003;53139;45.576;5.304;2023-03-31T14:55:40;0.00;0.00;0.00
66336;PMS1003;53139;45.576;5.304;2023-03-31T14:58:48;1.00;0.00;0.00
66336;PMS1003;53139;45.576;5.304;2023-03-31T15:01:53;0.20;0.00;0.00
66336;PMS1003;53139;45.576;5.304;2023-03-31T15:05:00;1.00;0.00;0.00
66336;PMS1003;53139;45.576;5.304;2023-03-31T15:08:16;0.00;0.00;0.00
66336;PMS1003;53139;45.576;5.304;2023-03-31T15:11:21;0.00;0.00;0.00
66336;PMS1003;53139;45.576;5.304;2023-03-31T15:14:31;0.00;0.00;0.00
66336;PMS1003;53139;45.576;5.304;2023-03-31T15:17:38;0.20;0.00;0.00
66336;PMS1003;53139;45.576;5.304;2023-03-31T15:20:43;0.00;0.00;0.00
66336;PMS1003;53139;45.576;5.304;2023-03-31T15:23:46;0.00;0.00;0.00
66336;PMS1003;53139;45.576;5.304;2023-03-31T15:26:55;0.00;0.00;0.00
66336;PMS1003;53139;45.576;5.304;2023-03-31T15:30:06;0.00;0.00;0.00
66336;PMS1003;53139;45.576;5.304;2023-03-31T15:33:17;0.60;0.00;0.00
66336;PMS1003;53139;45.576;5.304;2023-03-31T15:36:23;0.40;0.00;0.00
66336;PMS1003;53139;45.576;5.304;2023-03-31T15:39:29;0.00;0.00;0.00
66336;PMS1003;53139;45.576;5.304;2023-03-31T15:42:34;0.00;0.00;0.00
66336;PMS1003;53139;45.576;5.304;2023-03-31T15:48:53;0.80;0.00;0.00
66336;PMS1003;53139;45.576;5.304;2023-03-31T15:51:57;0.00;0.00;0.00
66336;PMS1003;53139;45.576;5.304;2023-03-31T15:55:12;0.00;0.00;0.00
66336;PMS1003;53139;45.576;5.304;2023-03-31T15:58:44;0.00;0.00;0.00
66336;PMS1003;53139;45.576;5.304;2023-03-31T16:01:48;0.00;0.00;0.00
66336;PMS1003;53139;45.576;5.304;2023-03-31T16:04:55;0.00;0.00;0.00
66336;PMS1003;53139;45.576;5.304;2023-03-31T16:08:00;0.00;0.00;0.00
66336;PMS1003;53139;45.576;5.304;2023-03-31T16:11:08;0.00;0.00;0.00
66336;PMS1003;53139;45.576;5.304;2023-03-31T16:14:16;2.00;0.00;0.00
66336;PMS1003;53139;45.576;5.304;2023-03-31T16:17:31;0.00;0.00;0.00
66336;PMS1003;53139;45.576;5.304;2023-03-31T16:20:40;0.00;0.00;0.00
66336;PMS1003;53139;45.576;5.304;2023-03-31T16:23:55;0.00;0.00;0.00
66336;PMS1003;53139;45.576;5.304;2023-03-31T16:27:00;1.00;0.00;0.00
66336;PMS1003;53139;45.576;5.304;2023-03-31T16:30:11;0.40;0.00;0.00
66336;PMS1003;53139;45.576;5.304;2023-03-31T16:33:17;0.00;0.00;0.00
66336;PMS1003;53139;45.576;5.304;2023-03-31T16:36:21;0.00;0.00;0.00
66336;PMS1003;53139;45.576;5.304;2023-03-31T16:39:24;0.00;0.00;0.00
66336;PMS1003;53139;45.576;5.304;2023-03-31T16:42:26;0.00;0.00;0.00
66336;PMS1003;53139;45.576;5.304;2023-03-31T16:45:29;0.00;0.00;0.00
66336;PMS1003;53139;45.576;5.304;2023-03-31T16:48:32;0.00;0.00;0.00
66336;PMS1003;53139;45.576;5.304;2023-03-31T16:51:35;0.00;0.00;0.00
66336;PMS1003;53139;45.576;5.304;2023-03-31T16:54:38;0.00;0.00;0.00
66336;PMS1003;53139;45.576;5.304;2023-03-31T16:57:40;0.00;0.00;0.00
66336;PMS1003;53139;45.576;5.304;2023-03-31T17:00:43;0.00;0.00;0.00
66336;PMS1003;53139;45.576;5.304;2023-03-31T17:03:46;0.00;0.00;0.00
66336;PMS1003;53139;45.576;5.304;2023-03-31T17:06:49;0.00;0.00;0.00
66336;PMS1003;53139;45.576;5.304;2023-03-31T17:09:52;0.00;0.00;0.00
66336;PMS1003;53139;45.576;5.304;2023-03-31T17:12:55;0.80;0.00;0.00
66336;PMS1003;53139;45.576;5.304;2023-03-31T17:15:57;0.00;0.00;0.00
66336;PMS1003;53139;45.576;5.304;2023-03-31T17:19:01;0.00;0.00;0.00
66336;PMS1003;53139;45.576;5.304;2023-03-31T17:22:03;3.00;2.00;2.00
66336;PMS1003;53139;45.576;5.304;2023-03-31T17:25:06;1.00;1.00;0.20
66336;PMS1003;53139;45.576;5.304;2023-03-31T17:28:11;0.80;0.00;0.00
66336;PMS1003;53139;45.576;5.304;2023-03-31T17:31:15;1.80;1.80;1.00
66336;PMS1003;53139;45.576;5.304;2023-03-31T17:34:20;0.00;0.00;0.00
66336;PMS1003;53139;45.576;5.304;2023-03-31T17:37:22;1.60;0.00;0.00
66336;PMS1003;53139;45.576;5.304;2023-03-31T17:40:25;0.00;0.00;0.00
66336;PMS1003;53139;45.576;5.304;2023-03-31T17:43:27;1.60;0.00;0.00
66336;PMS1003;53139;45.576;5.304;2023-03-31T17:46:30;0.00;0.00;0.00
66336;PMS1003;53139;45.576;5.304;2023-03-31T17:49:33;0.00;0.00;0.00
66336;PMS1003;53139;45.576;5.304;2023-03-31T17:52:35;2.00;0.00;0.00
66336;PMS1003;53139;45.576;5.304;2023-03-31T17:55:38;0.00;0.00;0.00
66336;PMS1003;53139;45.576;5.304;2023-03-31T17:58:41;0.00;0.00;0.00
66336;PMS1003;53139;45.576;5.304;2023-03-31T18:01:43;0.00;0.00;0.00
66336;PMS1003;53139;45.576;5.304;2023-03-31T18:04:47;0.00;0.00;0.00
66336;PMS1003;53139;45.576;5.304;2023-03-31T18:07:50;0.00;0.00;0.00
66336;PMS1003;53139;45.576;5.304;2023-03-31T18:10:53;0.00;0.00;0.00
66336;PMS1003;53139;45.576;5.304;2023-03-31T18:13:55;3.20;1.80;1.60
66336;PMS1003;53139;45.576;5.304;2023-03-31T18:16:58;2.00;1.60;1.00
66336;PMS1003;53139;45.576;5.304;2023-03-31T18:20:00;0.20;0.20;0.00
66336;PMS1003;53139;45.576;5.304;2023-03-31T18:23:03;0.20;0.00;0.00
66336;PMS1003;53139;45.576;5.304;2023-03-31T18:26:09;3.40;2.00;2.00
66336;PMS1003;53139;45.576;5.304;2023-03-31T18:29:13;0.00;0.00;0.00
66336;PMS1003;53139;45.576;5.304;2023-03-31T18:32:16;1.20;0.00;0.00
66336;PMS1003;53139;45.576;5.304;2023-03-31T18:35:18;0.80;0.00;0.00
66336;PMS1003;53139;45.576;5.304;2023-03-31T18:38:21;0.80;0.00;0.00
66336;PMS1003;53139;45.576;5.304;2023-03-31T18:41:24;0.00;0.00;0.00
66336;PMS1003;53139;45.576;5.304;2023-03-31T18:44:26;0.00;0.00;0.00
66336;PMS1003;53139;45.576;5.304;2023-03-31T18:47:29;0.20;0.20;0.00
66336;PMS1003;53139;45.576;5.304;2023-03-31T18:50:31;2.60;0.00;0.00
66336;PMS1003;53139;45.576;5.304;2023-03-31T18:53:34;0.00;0.00;0.00
66336;PMS1003;53139;45.576;5.304;2023-03-31T18:56:36;0.00;0.00;0.00
66336;PMS1003;53139;45.576;5.304;2023-03-31T18:59:39;0.60;0.00;0.00
66336;PMS1003;53139;45.576;5.304;2023-03-31T19:02:42;0.00;0.00;0.00
66336;PMS1003;53139;45.576;5.304;2023-03-31T19:05:44;0.00;0.00;0.00
66336;PMS1003;53139;45.576;5.304;2023-03-31T19:08:47;1.00;0.00;0.00
66336;PMS1003;53139;45.576;5.304;2023-03-31T19:11:50;0.00;0.00;0.00
66336;PMS1003;53139;45.576;5.304;2023-03-31T19:14:53;3.20;0.00;0.00
66336;PMS1003;53139;45.576;5.304;2023-03-31T19:17:56;2.00;0.00;0.00
66336;PMS1003;53139;45.576;5.304;2023-03-31T19:20:59;0.00;0.00;0.00
66336;PMS1003;53139;45.576;5.304;2023-03-31T19:24:02;0.00;0.00;0.00
66336;PMS1003;53139;45.576;5.304;2023-03-31T19:27:06;0.80;0.00;0.00
66336;PMS1003;53139;45.576;5.304;2023-03-31T19:30:19;0.00;0.00;0.00
66336;PMS1003;53139;45.576;5.304;2023-03-31T19:33:23;0.80;0.00;0.00
66336;PMS1003;53139;45.576;5.304;2023-03-31T19:36:27;1.00;0.00;0.00
66336;PMS1003;53139;45.576;5.304;2023-03-31T19:39:29;0.20;0.00;0.00
66336;PMS1003;53139;45.576;5.304;2023-03-31T19:42:32;0.80;0.80;0.00
66336;PMS1003;53139;45.576;5.304;2023-03-31T19:45:35;0.00;0.00;0.00
66336;PMS1003;53139;45.576;5.304;2023-03-31T19:48:38;2.40;1.20;1.00
66336;PMS1003;53139;45.576;5.304;2023-03-31T19:51:40;0.00;0.00;0.00
66336;PMS1003;53139;45.576;5.304;2023-03-31T19:54:43;0.40;0.40;0.00
66336;PMS1003;53139;45.576;5.304;2023-03-31T19:57:45;0.00;0.00;0.00
66336;PMS1003;53139;45.576;5.304;2023-03-31T20:00:51;1.00;0.00;0.00
66336;PMS1003;53139;45.576;5.304;2023-03-31T20:03:55;0.40;0.40;0.40
66336;PMS1003;53139;45.576;5.304;2023-03-31T20:06:58;2.60;1.40;1.00
66336;PMS1003;53139;45.576;5.304;2023-03-31T20:10:01;1.40;1.40;1.00
66336;PMS1003;53139;45.576;5.304;2023-03-31T20:13:03;0.00;0.00;0.00
66336;PMS1003;53139;45.576;5.304;2023-03-31T20:16:10;1.40;0.40;0.00
66336;PMS1003;53139;45.576;5.304;2023-03-31T20:19:15;1.20;0.60;0.60